createdAt,value
2022-08-31T00:00:59.916Z,45.29
2022-08-31T00:02:00.343Z,45.17
2022-08-31T00:03:00.619Z,45.19
2022-08-31T00:04:00.931Z,45.29
2022-08-31T00:05:01.203Z,45.17
2022-08-31T00:06:01.408Z,45.19
2022-08-31T00:07:01.640Z,45.27
2022-08-31T00:08:01.905Z,45.27
2022-08-31T00:09:02.208Z,45.17
2022-08-31T00:10:02.475Z,45.27
2022-08-31T00:11:02.784Z,45.27
2022-08-31T00:12:03.042Z,45.27
2022-08-31T00:13:03.484Z,45.39
2022-08-31T00:14:03.700Z,45.39
2022-08-31T00:15:03.976Z,45.39
2022-08-31T00:16:04.339Z,45.37
2022-08-31T00:17:04.655Z,45.47
2022-08-31T00:18:04.882Z,45.39
2022-08-31T00:19:05.224Z,45.49
2022-08-31T00:20:05.509Z,45.49
2022-08-31T00:21:05.787Z,45.59
2022-08-31T00:22:06.042Z,45.59
2022-08-31T00:23:06.332Z,45.68
2022-08-31T00:24:06.667Z,45.68
2022-08-31T00:25:06.932Z,45.79
2022-08-31T00:26:07.282Z,46.08
2022-08-31T00:27:07.606Z,46.28
2022-08-31T00:28:07.876Z,46.58
2022-08-31T00:29:08.222Z,47.10
2022-08-31T00:30:08.387Z,47.42
2022-08-31T00:31:08.755Z,47.72
2022-08-31T00:32:09.074Z,47.82
2022-08-31T00:33:09.314Z,48.14
2022-08-31T00:34:09.628Z,48.24
2022-08-31T00:35:09.840Z,48.44
2022-08-31T00:36:10.151Z,48.54
2022-08-31T00:37:10.398Z,48.74
2022-08-31T00:38:10.641Z,48.74
2022-08-31T00:39:10.862Z,48.83
2022-08-31T00:40:11.201Z,48.94
2022-08-31T00:41:11.460Z,48.64
2022-08-31T00:42:11.853Z,48.74
2022-08-31T00:43:12.111Z,48.74
2022-08-31T00:44:12.309Z,48.86
2022-08-31T00:45:13.628Z,48.94
2022-08-31T00:46:13.006Z,48.94
2022-08-31T00:47:13.237Z,49.06
2022-08-31T00:48:13.575Z,49.06
2022-08-31T00:49:13.983Z,49.16
2022-08-31T00:50:14.106Z,49.26
2022-08-31T00:51:15.268Z,49.36
2022-08-31T00:52:14.612Z,49.26
2022-08-31T00:53:14.974Z,49.36
2022-08-31T00:54:15.387Z,49.46
2022-08-31T00:55:15.519Z,49.55
2022-08-31T00:56:15.903Z,49.46
2022-08-31T00:57:16.192Z,49.66
2022-08-31T00:58:16.503Z,49.55
2022-08-31T00:59:16.795Z,49.55
2022-08-31T01:00:17.126Z,49.55
2022-08-31T01:01:17.411Z,49.55
2022-08-31T01:02:17.804Z,49.76
2022-08-31T01:03:18.206Z,49.88
2022-08-31T01:04:18.312Z,49.88
2022-08-31T01:05:18.602Z,49.88
2022-08-31T01:06:18.901Z,49.76
2022-08-31T01:07:19.119Z,49.78
2022-08-31T01:08:19.898Z,49.78
2022-08-31T01:09:20.817Z,49.66
2022-08-31T01:10:20.135Z,49.66
2022-08-31T01:11:20.421Z,49.66
2022-08-31T01:12:20.808Z,49.85
2022-08-31T01:13:20.990Z,49.88
2022-08-31T01:14:21.361Z,49.88
2022-08-31T01:15:21.640Z,49.88
2022-08-31T01:16:22.018Z,49.98
2022-08-31T01:17:22.207Z,50.18
2022-08-31T01:18:22.499Z,50.18
2022-08-31T01:19:22.797Z,50.18
2022-08-31T01:20:23.126Z,50.27
2022-08-31T01:21:23.449Z,50.38
2022-08-31T01:22:23.755Z,50.38
2022-08-31T01:23:24.035Z,51.07
2022-08-31T01:24:24.442Z,51.67
2022-08-31T01:25:24.655Z,51.77
2022-08-31T01:26:25.949Z,52.97
2022-08-31T01:27:25.231Z,54.36
2022-08-31T01:28:25.560Z,54.58
2022-08-31T01:29:25.856Z,54.88
2022-08-31T01:30:26.173Z,55.78
2022-08-31T01:31:26.545Z,57.57
2022-08-31T01:32:26.730Z,58.10
2022-08-31T01:33:27.051Z,59.00
2022-08-31T01:34:27.341Z,59.99
2022-08-31T01:35:27.634Z,60.62
2022-08-31T01:36:27.942Z,61.11
2022-08-31T01:37:29.462Z,62.21
2022-08-31T01:38:28.533Z,63.01
2022-08-31T01:39:28.813Z,63.11
2022-08-31T01:40:29.231Z,63.44
2022-08-31T01:41:29.373Z,63.81
2022-08-31T01:42:33.547Z,64.11
2022-08-31T01:43:29.995Z,64.41
2022-08-31T01:44:30.175Z,65.14
2022-08-31T01:45:30.463Z,65.44
2022-08-31T01:46:30.833Z,65.44
2022-08-31T01:47:31.124Z,65.64
2022-08-31T01:48:31.397Z,66.33
2022-08-31T01:49:31.677Z,66.86
2022-08-31T01:50:32.040Z,66.56
2022-08-31T01:51:32.400Z,66.66
2022-08-31T01:52:32.649Z,66.77
2022-08-31T01:53:32.954Z,66.43
2022-08-31T01:54:33.201Z,66.13
2022-08-31T01:55:33.513Z,66.27
2022-08-31T01:56:33.857Z,66.47
2022-08-31T01:57:34.774Z,66.56
2022-08-31T01:58:34.398Z,66.56
2022-08-31T01:59:34.804Z,66.77
2022-08-31T02:00:34.965Z,66.56
2022-08-31T02:01:35.339Z,66.66
2022-08-31T02:02:35.597Z,66.96
2022-08-31T02:03:35.756Z,67.57
2022-08-31T02:04:37.056Z,67.66
2022-08-31T02:05:36.343Z,67.57
2022-08-31T02:06:36.645Z,67.57
2022-08-31T02:07:36.981Z,67.36
2022-08-31T02:08:37.249Z,67.46
2022-08-31T02:09:37.603Z,67.66
2022-08-31T02:10:37.922Z,68.26
2022-08-31T02:11:38.212Z,68.56
2022-08-31T02:12:38.508Z,68.96
2022-08-31T02:13:38.810Z,69.39
2022-08-31T02:14:39.096Z,69.89
2022-08-31T02:15:39.376Z,70.83
2022-08-31T02:16:40.541Z,71.42
2022-08-31T02:17:39.972Z,71.52
2022-08-31T02:18:40.320Z,72.06
2022-08-31T02:19:40.635Z,72.26
2022-08-31T02:20:40.762Z,72.45
2022-08-31T02:21:41.090Z,72.56
2022-08-31T02:22:41.488Z,72.56
2022-08-31T02:23:41.746Z,72.45
2022-08-31T02:24:42.075Z,72.66
2022-08-31T02:25:42.362Z,72.86
2022-08-31T02:26:42.616Z,73.06
2022-08-31T02:27:42.955Z,73.06
2022-08-31T02:28:43.210Z,73.56
2022-08-31T02:29:43.579Z,73.66
2022-08-31T02:30:43.828Z,73.66
2022-08-31T02:31:44.181Z,73.56
2022-08-31T02:32:45.411Z,74.05
2022-08-31T02:33:44.674Z,73.86
2022-08-31T02:34:44.972Z,73.66
2022-08-31T02:35:45.194Z,74.26
2022-08-31T02:36:45.474Z,74.89
2022-08-31T02:37:45.857Z,75.39
2022-08-31T02:38:46.115Z,75.49
2022-08-31T02:39:46.441Z,75.69
2022-08-31T02:40:46.768Z,75.69
2022-08-31T02:41:47.094Z,75.79
2022-08-31T02:42:53.541Z,75.89
2022-08-31T02:43:48.682Z,75.99
2022-08-31T02:44:47.957Z,75.79
2022-08-31T02:45:51.070Z,75.99
2022-08-31T02:46:49.586Z,76.29
2022-08-31T02:47:48.752Z,76.43
2022-08-31T02:48:49.094Z,76.39
2022-08-31T02:49:49.386Z,76.29
2022-08-31T02:50:49.709Z,76.29
2022-08-31T02:51:49.975Z,76.39
2022-08-31T02:52:50.235Z,76.49
2022-08-31T02:53:50.625Z,76.49
2022-08-31T02:54:50.797Z,76.39
2022-08-31T02:55:51.063Z,76.29
2022-08-31T02:56:51.346Z,76.19
2022-08-31T02:57:51.623Z,76.09
2022-08-31T02:58:51.932Z,76.09
2022-08-31T02:59:52.126Z,76.19
2022-08-31T03:00:52.426Z,76.29
2022-08-31T03:01:52.879Z,76.29
2022-08-31T03:02:53.225Z,76.39
2022-08-31T03:03:53.348Z,76.73
2022-08-31T03:04:53.609Z,76.83
2022-08-31T03:05:53.901Z,77.03
2022-08-31T03:06:54.322Z,77.03
2022-08-31T03:07:54.623Z,76.93
2022-08-31T03:08:54.900Z,76.53
2022-08-31T03:09:55.191Z,76.39
2022-08-31T03:10:55.384Z,76.53
2022-08-31T03:11:55.720Z,76.63
2022-08-31T03:12:55.957Z,76.53
2022-08-31T03:13:58.719Z,76.63
2022-08-31T03:14:56.470Z,76.63
2022-08-31T03:15:56.851Z,76.93
2022-08-31T03:16:56.997Z,77.03
2022-08-31T03:17:57.271Z,77.03
2022-08-31T03:18:57.526Z,77.03
2022-08-31T03:19:57.804Z,77.13
2022-08-31T03:20:58.108Z,77.47
2022-08-31T03:21:58.521Z,77.47
2022-08-31T03:22:59.436Z,77.26
2022-08-31T03:23:59.144Z,77.36
2022-08-31T03:24:59.403Z,77.36
2022-08-31T03:25:59.741Z,77.36
2022-08-31T03:26:59.954Z,77.36
2022-08-31T03:28:00.328Z,77.26
2022-08-31T03:29:00.586Z,76.97
2022-08-31T03:30:00.864Z,76.83
2022-08-31T03:31:01.385Z,77.33
2022-08-31T03:32:01.536Z,77.47
2022-08-31T03:33:02.598Z,77.47
2022-08-31T03:34:02.042Z,77.47
2022-08-31T03:35:02.415Z,77.47
2022-08-31T03:36:02.696Z,77.56
2022-08-31T03:37:02.956Z,77.67
2022-08-31T03:38:03.320Z,77.67
2022-08-31T03:39:03.588Z,77.86
2022-08-31T03:40:04.140Z,77.86
2022-08-31T03:41:04.281Z,77.67
2022-08-31T03:42:04.551Z,77.67
2022-08-31T03:43:04.828Z,77.67
2022-08-31T03:44:05.095Z,77.56
2022-08-31T03:45:05.396Z,77.76
2022-08-31T03:46:07.880Z,77.86
2022-08-31T03:47:06.971Z,77.86
2022-08-31T03:48:11.446Z,77.67
2022-08-31T03:49:07.583Z,77.56
2022-08-31T03:50:06.930Z,77.36
2022-08-31T03:51:07.138Z,77.17
2022-08-31T03:52:07.658Z,76.93
2022-08-31T03:53:07.694Z,76.73
2022-08-31T03:54:07.997Z,76.43
2022-08-31T03:55:08.252Z,76.23
2022-08-31T03:56:08.525Z,76.43
2022-08-31T03:57:08.911Z,76.33
2022-08-31T03:58:09.125Z,76.13
2022-08-31T03:59:09.295Z,76.23
2022-08-31T04:00:09.619Z,76.03
2022-08-31T04:01:10.029Z,76.17
2022-08-31T04:02:10.336Z,76.17
2022-08-31T04:03:10.569Z,75.83
2022-08-31T04:04:10.770Z,76.06
2022-08-31T04:05:11.093Z,75.96
2022-08-31T04:06:11.419Z,75.96
2022-08-31T04:07:11.666Z,75.96
2022-08-31T04:08:11.903Z,75.96
2022-08-31T04:09:12.233Z,75.76
2022-08-31T04:10:12.502Z,75.63
2022-08-31T04:11:12.816Z,75.52
2022-08-31T04:12:13.186Z,75.26
2022-08-31T04:13:13.379Z,75.46
2022-08-31T04:14:15.520Z,75.13
2022-08-31T04:15:13.956Z,74.83
2022-08-31T04:16:14.251Z,74.43
2022-08-31T04:17:14.496Z,74.22
2022-08-31T04:18:14.781Z,74.03
2022-08-31T04:19:14.979Z,73.93
2022-08-31T04:20:15.317Z,73.83
2022-08-31T04:21:15.614Z,73.49
2022-08-31T04:22:15.757Z,73.39
2022-08-31T04:23:16.110Z,73.29
2022-08-31T04:24:16.574Z,73.09
2022-08-31T04:25:18.162Z,72.89
2022-08-31T04:26:16.921Z,72.79
2022-08-31T04:27:17.241Z,72.69
2022-08-31T04:28:17.573Z,72.45
2022-08-31T04:29:17.858Z,72.36
2022-08-31T04:30:18.048Z,72.26
2022-08-31T04:31:18.420Z,72.26
2022-08-31T04:32:18.697Z,72.16
2022-08-31T04:33:19.251Z,71.86
2022-08-31T04:34:19.355Z,71.86
2022-08-31T04:35:19.705Z,71.66
2022-08-31T04:36:19.917Z,71.56
2022-08-31T04:37:20.240Z,71.26
2022-08-31T04:38:20.593Z,71.16
2022-08-31T04:39:20.967Z,71.16
2022-08-31T04:40:25.418Z,71.26
2022-08-31T04:41:22.589Z,71.16
2022-08-31T04:42:21.836Z,71.06
2022-08-31T04:43:24.137Z,70.83
2022-08-31T04:44:22.347Z,70.83
2022-08-31T04:45:22.706Z,70.72
2022-08-31T04:46:22.959Z,70.53
2022-08-31T04:47:23.159Z,70.32
2022-08-31T04:48:23.487Z,69.93
2022-08-31T04:49:23.767Z,70.03
2022-08-31T04:50:23.961Z,70.03
2022-08-31T04:51:24.171Z,70.12
2022-08-31T04:52:28.431Z,69.99
2022-08-31T04:53:25.751Z,70.19
2022-08-31T04:54:25.161Z,69.99
2022-08-31T04:55:25.340Z,69.89
2022-08-31T04:56:25.624Z,70.29
2022-08-31T04:57:25.951Z,70.19
2022-08-31T04:58:26.176Z,70.39
2022-08-31T04:59:26.440Z,70.83
2022-08-31T05:00:26.674Z,71.22
2022-08-31T05:01:26.997Z,71.52
2022-08-31T05:02:27.229Z,71.83
2022-08-31T05:03:27.451Z,71.92
2022-08-31T05:04:27.853Z,71.83
2022-08-31T05:05:28.023Z,71.62
2022-08-31T05:06:28.286Z,71.62
2022-08-31T05:07:28.558Z,71.72
2022-08-31T05:08:28.770Z,71.52
2022-08-31T05:09:29.044Z,71.72
2022-08-31T05:10:29.285Z,71.72
2022-08-31T05:11:29.540Z,71.92
2022-08-31T05:12:29.796Z,72.02
2022-08-31T05:13:30.018Z,72.02
2022-08-31T05:14:30.351Z,72.13
2022-08-31T05:15:30.860Z,72.02
2022-08-31T05:16:30.895Z,72.02
2022-08-31T05:17:31.156Z,72.13
2022-08-31T05:18:31.397Z,71.72
2022-08-31T05:19:31.656Z,71.92
2022-08-31T05:20:32.068Z,71.72
2022-08-31T05:21:32.183Z,71.62
2022-08-31T05:22:32.409Z,71.79
2022-08-31T05:23:32.857Z,71.99
2022-08-31T05:24:33.096Z,71.99
2022-08-31T05:25:33.372Z,71.99
2022-08-31T05:26:33.654Z,72.19
2022-08-31T05:27:33.850Z,72.19
2022-08-31T05:28:34.263Z,72.59
2022-08-31T05:29:34.510Z,72.69
2022-08-31T05:30:34.770Z,72.78
2022-08-31T05:31:35.022Z,72.99
2022-08-31T05:32:35.276Z,73.09
2022-08-31T05:33:35.548Z,72.89
2022-08-31T05:34:36.254Z,72.29
2022-08-31T05:35:36.184Z,72.22
2022-08-31T05:36:36.503Z,72.22
2022-08-31T05:37:36.666Z,72.19
2022-08-31T05:38:36.891Z,72.32
2022-08-31T05:39:37.210Z,72.42
2022-08-31T05:40:37.539Z,72.52
2022-08-31T05:41:37.720Z,72.52
2022-08-31T05:42:37.976Z,72.92
2022-08-31T05:43:38.204Z,73.22
2022-08-31T05:44:38.554Z,73.42
2022-08-31T05:45:38.860Z,73.42
2022-08-31T05:46:39.131Z,73.32
2022-08-31T05:47:39.371Z,73.42
2022-08-31T05:48:39.585Z,73.52
2022-08-31T05:49:39.930Z,73.72
2022-08-31T05:50:40.256Z,73.92
2022-08-31T05:51:40.586Z,74.22
2022-08-31T05:52:40.755Z,74.46
2022-08-31T05:53:41.110Z,74.42
2022-08-31T05:54:41.421Z,74.66
2022-08-31T05:55:41.711Z,74.76
2022-08-31T05:56:41.942Z,74.76
2022-08-31T05:57:42.262Z,74.76
2022-08-31T05:58:44.281Z,74.96
2022-08-31T05:59:42.720Z,75.26
2022-08-31T06:00:42.989Z,75.26
2022-08-31T06:01:43.360Z,75.26
2022-08-31T06:02:43.587Z,75.16
2022-08-31T06:03:43.826Z,75.16
2022-08-31T06:04:44.148Z,75.35
2022-08-31T06:05:44.372Z,75.79
2022-08-31T06:06:44.647Z,76.19
2022-08-31T06:07:44.901Z,76.53
2022-08-31T06:08:45.164Z,76.59
2022-08-31T06:09:45.362Z,76.59
2022-08-31T06:10:45.716Z,76.59
2022-08-31T06:11:46.003Z,76.59
2022-08-31T06:12:46.305Z,76.59
2022-08-31T06:13:46.547Z,76.79
2022-08-31T06:14:50.001Z,76.69
2022-08-31T06:15:48.162Z,76.49
2022-08-31T06:16:47.342Z,76.69
2022-08-31T06:17:47.567Z,76.79
2022-08-31T06:18:47.804Z,77.03
2022-08-31T06:19:48.019Z,77.09
2022-08-31T06:20:48.435Z,77.23
2022-08-31T06:21:49.650Z,77.13
2022-08-31T06:22:48.971Z,77.09
2022-08-31T06:23:49.219Z,76.99
2022-08-31T06:24:49.679Z,76.79
2022-08-31T06:25:49.879Z,76.79
2022-08-31T06:26:52.422Z,76.29
2022-08-31T06:27:50.451Z,76.09
2022-08-31T06:28:50.721Z,75.89
2022-08-31T06:29:51.006Z,75.65
2022-08-31T06:30:55.338Z,75.76
2022-08-31T06:31:51.489Z,75.79
2022-08-31T06:32:53.832Z,75.89
2022-08-31T06:33:52.982Z,75.89
2022-08-31T06:34:52.269Z,76.19
2022-08-31T06:35:52.601Z,76.49
2022-08-31T06:36:52.805Z,76.39
2022-08-31T06:37:53.170Z,76.39
2022-08-31T06:38:53.411Z,76.69
2022-08-31T06:39:53.691Z,76.63
2022-08-31T06:40:53.946Z,76.83
2022-08-31T06:41:54.162Z,76.33
2022-08-31T06:42:54.433Z,76.73
2022-08-31T06:43:54.676Z,76.73
2022-08-31T06:44:54.884Z,76.33
2022-08-31T06:45:55.427Z,76.33
2022-08-31T06:46:55.508Z,76.73
2022-08-31T06:47:55.724Z,76.83
2022-08-31T06:48:56.093Z,76.73
2022-08-31T06:49:56.421Z,77.83
2022-08-31T06:50:56.626Z,77.09
2022-08-31T06:51:56.940Z,76.79
2022-08-31T06:52:57.154Z,76.59
2022-08-31T06:54:04.403Z,77.19
2022-08-31T06:54:58.670Z,77.36
2022-08-31T06:55:57.923Z,77.36
2022-08-31T06:56:58.165Z,76.95
2022-08-31T06:57:58.439Z,76.95
2022-08-31T06:58:58.667Z,76.76
2022-08-31T06:59:58.973Z,77.25
2022-08-31T07:00:59.247Z,77.45
2022-08-31T07:01:59.661Z,76.56
2022-08-31T07:02:59.909Z,75.85
2022-08-31T07:04:00.092Z,75.96
2022-08-31T07:05:00.450Z,76.56
2022-08-31T07:06:00.681Z,73.75
2022-08-31T07:07:00.911Z,73.29
2022-08-31T07:08:01.188Z,72.99
2022-08-31T07:09:01.452Z,72.99
2022-08-31T07:10:01.736Z,73.49
2022-08-31T07:11:01.953Z,73.09
2022-08-31T07:12:02.222Z,74.59
2022-08-31T07:13:02.486Z,74.13
2022-08-31T07:14:02.723Z,73.83
2022-08-31T07:15:02.991Z,72.13
2022-08-31T07:16:03.255Z,72.63
2022-08-31T07:17:03.455Z,73.63
2022-08-31T07:18:06.118Z,73.43
2022-08-31T07:19:05.057Z,74.16
2022-08-31T07:20:04.355Z,74.76
2022-08-31T07:21:04.686Z,74.46
2022-08-31T07:22:04.857Z,74.40
2022-08-31T07:23:05.227Z,73.60
2022-08-31T07:24:05.484Z,74.10
2022-08-31T07:25:05.753Z,73.80
2022-08-31T07:26:06.034Z,72.50
2022-08-31T07:27:06.294Z,72.89
2022-08-31T07:28:06.565Z,73.60
2022-08-31T07:29:06.791Z,73.00
2022-08-31T07:30:07.066Z,72.86
2022-08-31T07:31:07.552Z,72.66
2022-08-31T07:32:07.662Z,71.56
2022-08-31T07:33:07.875Z,70.76
2022-08-31T07:34:08.169Z,71.36
2022-08-31T07:35:08.440Z,71.46
2022-08-31T07:36:08.672Z,70.96
2022-08-31T07:37:09.071Z,71.42
2022-08-31T07:38:09.317Z,68.96
2022-08-31T07:39:09.638Z,68.55
2022-08-31T07:40:09.889Z,69.96
2022-08-31T07:41:10.142Z,69.46
2022-08-31T07:42:10.455Z,70.26
2022-08-31T07:43:10.847Z,70.06
2022-08-31T07:44:10.915Z,70.26
2022-08-31T07:45:11.732Z,71.16
2022-08-31T07:46:11.490Z,71.46
2022-08-31T07:47:11.731Z,72.00
2022-08-31T07:48:11.965Z,72.39
2022-08-31T07:49:12.200Z,73.39
2022-08-31T07:50:12.453Z,73.50
2022-08-31T07:51:15.230Z,75.00
2022-08-31T07:52:12.976Z,75.20
2022-08-31T07:53:13.366Z,76.04
2022-08-31T07:54:13.630Z,75.74
2022-08-31T07:55:13.864Z,76.28
2022-08-31T07:56:14.196Z,77.17
2022-08-31T07:57:14.408Z,78.08
2022-08-31T07:58:14.726Z,78.48
2022-08-31T07:59:14.942Z,78.48
2022-08-31T08:00:15.226Z,78.88
2022-08-31T08:01:15.465Z,79.28
2022-08-31T08:02:17.592Z,80.38
2022-08-31T08:03:16.142Z,80.42
2022-08-31T08:04:16.356Z,81.32
2022-08-31T08:05:16.613Z,81.02
2022-08-31T08:06:16.921Z,81.02
2022-08-31T08:07:17.148Z,81.76
2022-08-31T08:08:17.423Z,82.37
2022-08-31T08:09:24.386Z,83.07
2022-08-31T08:10:18.871Z,82.97
2022-08-31T08:11:19.059Z,82.87
2022-08-31T08:12:18.472Z,82.37
2022-08-31T08:13:18.962Z,81.46
2022-08-31T08:14:19.061Z,82.46
2022-08-31T08:15:19.325Z,82.67
2022-08-31T08:16:19.595Z,83.27
2022-08-31T08:17:19.847Z,84.11
2022-08-31T08:18:20.126Z,84.01
2022-08-31T08:19:20.382Z,85.11
2022-08-31T08:20:34.173Z,85.46
2022-08-31T08:21:21.859Z,85.75
2022-08-31T08:22:41.540Z,85.56
2022-08-31T08:23:28.204Z,87.06
2022-08-31T08:24:22.879Z,87.57
2022-08-31T08:25:25.760Z,87.46
2022-08-31T08:26:22.449Z,88.21
2022-08-31T08:27:22.645Z,88.51
2022-08-31T08:28:38.706Z,88.61
2022-08-31T08:29:24.156Z,89.22
2022-08-31T08:30:23.440Z,88.61
2022-08-31T08:31:23.752Z,89.66
2022-08-31T08:32:24.017Z,89.76
2022-08-31T08:33:24.246Z,89.86
2022-08-31T08:34:32.749Z,90.36
2022-08-31T08:35:25.798Z,89.66
2022-08-31T08:36:25.062Z,90.56
2022-08-31T08:37:41.379Z,91.17
2022-08-31T08:38:26.605Z,91.57
2022-08-31T08:39:25.848Z,91.57
2022-08-31T08:40:26.133Z,91.47
2022-08-31T08:41:26.377Z,90.77
2022-08-31T08:42:26.597Z,90.86
2022-08-31T08:43:30.809Z,90.77
2022-08-31T08:44:27.319Z,91.27
2022-08-31T08:45:27.569Z,91.01
2022-08-31T08:46:34.908Z,91.21
2022-08-31T08:47:37.769Z,91.82
2022-08-31T08:48:29.321Z,90.30
2022-08-31T08:49:28.613Z,90.91
2022-08-31T08:50:28.819Z,91.31
2022-08-31T08:51:29.143Z,91.41
2022-08-31T08:52:29.350Z,91.71
2022-08-31T08:53:29.632Z,91.82
2022-08-31T08:54:29.864Z,91.31
2022-08-31T08:55:30.113Z,92.52
2022-08-31T08:56:33.791Z,92.92
2022-08-31T08:57:30.688Z,92.22
2022-08-31T08:58:30.872Z,91.91
2022-08-31T08:59:31.626Z,92.22
2022-08-31T09:00:31.485Z,91.82
2022-08-31T09:01:31.800Z,92.52
2022-08-31T09:02:32.033Z,91.51
2022-08-31T09:03:32.278Z,92.72
2022-08-31T09:04:32.677Z,92.32
2022-08-31T09:05:32.801Z,93.02
2022-08-31T09:06:40.538Z,92.86
2022-08-31T09:07:34.235Z,93.22
2022-08-31T09:08:33.512Z,92.36
2022-08-31T09:09:33.838Z,92.66
2022-08-31T09:10:34.029Z,91.55
2022-08-31T09:11:34.277Z,92.26
2022-08-31T09:12:34.520Z,91.96
2022-08-31T09:13:34.786Z,91.46
2022-08-31T09:14:35.037Z,91.86
2022-08-31T09:15:35.400Z,93.37
2022-08-31T09:16:35.670Z,93.37
2022-08-31T09:17:35.894Z,93.21
2022-08-31T09:18:36.332Z,93.01
2022-08-31T09:19:36.568Z,93.51
2022-08-31T09:20:36.822Z,94.27
2022-08-31T09:21:37.107Z,93.31
2022-08-31T09:22:37.442Z,93.61
2022-08-31T09:23:37.661Z,93.61
2022-08-31T09:24:37.923Z,93.11
2022-08-31T09:25:38.174Z,93.71
2022-08-31T09:26:38.531Z,94.52
2022-08-31T09:27:38.744Z,94.21
2022-08-31T09:28:39.013Z,94.52
2022-08-31T09:29:39.257Z,94.42
2022-08-31T09:30:39.504Z,94.01
2022-08-31T09:31:39.843Z,93.71
2022-08-31T09:32:40.125Z,94.72
2022-08-31T09:33:40.353Z,95.02
2022-08-31T09:34:40.596Z,95.32
2022-08-31T09:35:40.823Z,95.87
2022-08-31T09:36:41.346Z,96.17
2022-08-31T09:37:41.355Z,96.58
2022-08-31T09:38:41.632Z,96.93
2022-08-31T09:39:41.919Z,96.93
2022-08-31T09:40:42.227Z,97.03
2022-08-31T09:41:42.448Z,96.93
2022-08-31T09:42:42.673Z,96.03
2022-08-31T09:43:42.946Z,95.73
2022-08-31T09:44:43.134Z,95.83
2022-08-31T09:45:43.507Z,95.97
2022-08-31T09:46:43.728Z,95.87
2022-08-31T09:47:43.975Z,96.17
2022-08-31T09:48:44.267Z,96.28
2022-08-31T09:49:44.641Z,96.63
2022-08-31T09:50:44.775Z,96.43
2022-08-31T09:51:45.077Z,95.62
2022-08-31T09:52:45.299Z,95.28
2022-08-31T09:53:45.598Z,94.98
2022-08-31T09:54:47.302Z,95.58
2022-08-31T09:55:46.187Z,95.38
2022-08-31T09:56:46.452Z,94.93
2022-08-31T09:57:46.709Z,94.83
2022-08-31T09:58:46.965Z,94.33
2022-08-31T09:59:47.254Z,93.73
2022-08-31T10:00:47.447Z,94.33
2022-08-31T10:01:47.789Z,93.42
2022-08-31T10:02:48.079Z,92.52
2022-08-31T10:03:48.373Z,93.12
2022-08-31T10:04:48.621Z,93.52
2022-08-31T10:05:48.857Z,92.72
2022-08-31T10:06:49.169Z,92.92
2022-08-31T10:07:49.446Z,92.82
2022-08-31T10:08:49.764Z,93.28
2022-08-31T10:09:49.996Z,93.48
2022-08-31T10:10:51.226Z,92.68
2022-08-31T10:11:50.523Z,92.97
2022-08-31T10:12:50.819Z,93.48
2022-08-31T10:13:51.127Z,93.48
2022-08-31T10:14:51.320Z,92.27
2022-08-31T10:15:51.600Z,92.68
2022-08-31T10:16:51.850Z,92.53
2022-08-31T10:17:52.093Z,93.03
2022-08-31T10:18:52.398Z,92.73
2022-08-31T10:19:52.670Z,91.93
2022-08-31T10:20:52.943Z,92.83
2022-08-31T10:21:53.264Z,92.29
2022-08-31T10:22:53.504Z,90.37
2022-08-31T10:23:53.812Z,90.68
2022-08-31T10:24:54.054Z,91.28
2022-08-31T10:25:54.324Z,91.18
2022-08-31T10:26:54.556Z,90.58
2022-08-31T10:27:54.848Z,91.03
2022-08-31T10:28:55.129Z,91.03
2022-08-31T10:29:55.383Z,91.14
2022-08-31T10:30:55.752Z,90.53
2022-08-31T10:31:55.957Z,90.33
2022-08-31T10:32:56.295Z,91.39
2022-08-31T10:33:56.578Z,90.79
2022-08-31T10:34:56.823Z,90.09
2022-08-31T10:35:57.070Z,90.39
2022-08-31T10:36:57.497Z,89.09
2022-08-31T10:37:57.686Z,90.39
2022-08-31T10:38:57.806Z,90.09
2022-08-31T10:39:58.121Z,89.99
2022-08-31T10:40:58.368Z,89.39
2022-08-31T10:41:58.830Z,90.09
2022-08-31T10:42:58.961Z,90.15
2022-08-31T10:43:59.197Z,89.75
2022-08-31T10:44:59.510Z,89.75
2022-08-31T10:45:59.878Z,90.25
2022-08-31T10:47:00.119Z,90.25
2022-08-31T10:48:00.316Z,90.75
2022-08-31T10:49:00.540Z,89.04
2022-08-31T10:50:01.741Z,89.25
2022-08-31T10:51:01.198Z,89.45
2022-08-31T10:52:01.490Z,89.04
2022-08-31T10:53:02.737Z,89.34
2022-08-31T10:54:02.056Z,88.75
2022-08-31T10:55:02.316Z,89.45
2022-08-31T10:56:02.600Z,89.50
2022-08-31T10:57:02.891Z,89.40
2022-08-31T10:58:03.097Z,89.00
2022-08-31T10:59:03.386Z,88.80
2022-08-31T11:00:03.718Z,89.61
2022-08-31T11:01:04.195Z,89.20
2022-08-31T11:02:04.319Z,89.11
2022-08-31T11:03:04.569Z,89.11
2022-08-31T11:04:04.838Z,88.70
2022-08-31T11:05:05.197Z,88.66
2022-08-31T11:06:05.432Z,88.36
2022-08-31T11:07:05.716Z,88.66
2022-08-31T11:08:06.058Z,89.16
2022-08-31T11:09:06.509Z,88.46
2022-08-31T11:10:06.598Z,87.55
2022-08-31T11:11:06.814Z,87.62
2022-08-31T11:12:07.313Z,86.71
2022-08-31T11:13:07.421Z,87.82
2022-08-31T11:14:07.701Z,88.12
2022-08-31T11:15:08.016Z,87.18
2022-08-31T11:16:08.315Z,86.47
2022-08-31T11:17:11.992Z,86.57
2022-08-31T11:18:08.927Z,86.43
2022-08-31T11:19:09.658Z,83.85
2022-08-31T11:20:09.647Z,81.37
2022-08-31T11:21:09.741Z,80.88
2022-08-31T11:22:09.995Z,80.58
2022-08-31T11:23:10.266Z,79.78
2022-08-31T11:24:10.533Z,79.84
2022-08-31T11:25:10.787Z,79.44
2022-08-31T11:26:11.095Z,79.44
2022-08-31T11:27:11.365Z,79.60
2022-08-31T11:28:11.676Z,79.44
2022-08-31T11:29:11.937Z,79.44
2022-08-31T11:30:12.207Z,78.70
2022-08-31T11:31:12.597Z,77.07
2022-08-31T11:32:12.797Z,76.17
2022-08-31T11:33:13.175Z,77.01
2022-08-31T11:34:17.496Z,77.84
2022-08-31T11:35:13.617Z,78.64
2022-08-31T11:36:13.870Z,78.08
2022-08-31T11:37:14.157Z,77.68
2022-08-31T11:38:14.447Z,79.72
2022-08-31T11:39:14.694Z,79.55
2022-08-31T11:40:15.057Z,79.96
2022-08-31T11:41:15.395Z,79.96
2022-08-31T11:42:15.532Z,80.29
2022-08-31T11:43:15.909Z,80.69
2022-08-31T11:44:16.146Z,80.49
2022-08-31T11:45:16.424Z,82.23
2022-08-31T11:46:17.562Z,81.63
2022-08-31T11:47:16.975Z,81.53
2022-08-31T11:48:17.255Z,81.57
2022-08-31T11:49:17.586Z,82.17
2022-08-31T11:50:17.847Z,81.67
2022-08-31T11:51:18.134Z,82.27
2022-08-31T11:52:18.394Z,81.47
2022-08-31T11:53:18.734Z,81.97
2022-08-31T11:54:19.013Z,81.47
2022-08-31T11:55:19.292Z,81.93
2022-08-31T11:56:19.604Z,80.93
2022-08-31T11:57:19.848Z,80.33
2022-08-31T11:58:21.124Z,81.33
2022-08-31T11:59:20.455Z,81.33
2022-08-31T12:00:20.666Z,78.93
2022-08-31T12:01:21.099Z,80.33
2022-08-31T12:02:21.447Z,80.23
2022-08-31T12:03:21.490Z,79.89
2022-08-31T12:04:22.257Z,79.23
2022-08-31T12:05:22.108Z,80.13
2022-08-31T12:06:22.354Z,79.99
2022-08-31T12:07:22.632Z,80.33
2022-08-31T12:08:22.906Z,79.83
2022-08-31T12:09:23.262Z,78.99
2022-08-31T12:10:26.763Z,80.09
2022-08-31T12:11:23.851Z,79.59
2022-08-31T12:12:24.156Z,79.09
2022-08-31T12:13:24.409Z,79.49
2022-08-31T12:14:24.718Z,79.96
2022-08-31T12:15:24.944Z,79.29
2022-08-31T12:16:25.331Z,79.16
2022-08-31T12:17:25.453Z,78.66
2022-08-31T12:18:25.741Z,79.09
2022-08-31T12:19:25.977Z,78.29
2022-08-31T12:20:26.258Z,78.59
2022-08-31T12:21:26.522Z,78.69
2022-08-31T12:22:26.916Z,78.39
2022-08-31T12:23:30.207Z,78.29
2022-08-31T12:24:27.465Z,78.55
2022-08-31T12:25:27.769Z,77.36
2022-08-31T12:26:28.074Z,77.95
2022-08-31T12:27:28.344Z,77.42
2022-08-31T12:28:29.355Z,77.32
2022-08-31T12:29:28.846Z,76.32
2022-08-31T12:30:29.153Z,76.08
2022-08-31T12:31:29.500Z,75.78
2022-08-31T12:32:29.871Z,75.09
2022-08-31T12:33:29.992Z,74.88
2022-08-31T12:34:30.303Z,75.78
2022-08-31T12:35:30.556Z,75.98
2022-08-31T12:36:30.864Z,75.78
2022-08-31T12:37:31.144Z,74.45
2022-08-31T12:38:31.437Z,73.85
2022-08-31T12:39:31.742Z,73.85
2022-08-31T12:40:32.038Z,74.35
2022-08-31T12:41:32.365Z,74.58
2022-08-31T12:42:32.634Z,74.49
2022-08-31T12:43:32.870Z,75.18
2022-08-31T12:44:33.119Z,75.09
2022-08-31T12:45:33.342Z,75.38
2022-08-31T12:46:33.946Z,75.38
2022-08-31T12:47:34.074Z,75.89
2022-08-31T12:48:34.380Z,75.78
2022-08-31T12:49:35.608Z,74.98
2022-08-31T12:50:34.897Z,75.09
2022-08-31T12:51:35.174Z,74.19
2022-08-31T12:52:35.487Z,73.58
2022-08-31T12:53:35.756Z,72.89
2022-08-31T12:54:36.169Z,73.45
2022-08-31T12:55:36.380Z,73.35
2022-08-31T12:56:36.639Z,73.55